Time;durP1;ratioP1;P1;durP2;ratioP2;P2;SDS_P1;SDS_P2;PMS_P1;PMS_P2;Temp;Humidity;BMP_temperature;BMP_pressure;BME280_temperature;BME280_humidity;BME280_pressure;Samples;Min_cycle;Max_cycle;Signal;HPM_P1;HPM_P2
2023/09/06 00:00:36;;;;;;;0.30;0.30;;;22.50;62.40;;;;;;6312730;22;20171;-91
2023/09/06 00:03:06;;;;;;;0.68;0.68;;;22.50;62.30;;;;;;6312013;22;20667;-91
2023/09/06 00:05:34;;;;;;;0.40;0.40;;;22.50;62.20;;;;;;6332766;22;20232;-91
2023/09/06 00:08:03;;;;;;;0.63;0.52;;;22.50;62.20;;;;;;6307519;22;20162;-90
2023/09/06 00:10:32;;;;;;;0.32;0.30;;;22.50;62.20;;;;;;6307952;22;20223;-90
2023/09/06 00:13:03;;;;;;;0.40;0.40;;;22.50;62.20;;;;;;6307245;22;20942;-91
2023/09/06 00:15:31;;;;;;;0.20;0.20;;;22.50;62.20;;;;;;6281600;22;20204;-91
2023/09/06 00:18:00;;;;;;;0.85;0.50;;;22.50;62.30;;;;;;6306955;22;20165;-91
2023/09/06 00:20:29;;;;;;;0.40;0.40;;;22.50;62.30;;;;;;6281132;22;20192;-92
2023/09/06 00:23:00;;;;;;;0.30;0.30;;;22.50;62.30;;;;;;6307048;22;20493;-91
2023/09/06 00:25:30;;;;;;;0.20;0.20;;;22.50;62.30;;;;;;6281124;22;20199;-92
2023/09/06 00:28:01;;;;;;;0.95;0.47;;;22.50;62.30;;;;;;6279769;22;20165;-92
2023/09/06 00:30:31;;;;;;;0.30;0.30;;;22.50;62.20;;;;;;6307522;22;20645;-92
2023/09/06 00:33:00;;;;;;;0.30;0.30;;;22.50;62.20;;;;;;6307369;22;20153;-90
2023/09/06 00:35:29;;;;;;;1.08;0.57;;;22.50;62.20;;;;;;6308165;22;20931;-92
2023/09/06 00:37:57;;;;;;;0.63;0.63;;;22.50;62.30;;;;;;6281056;22;20172;-91
2023/09/06 00:40:26;;;;;;;0.40;0.40;;;22.50;62.30;;;;;;6306868;22;20890;-91
2023/09/06 00:42:59;;;;;;;0.77;0.47;;;22.50;62.30;;;;;;6307403;22;20223;-92
2023/09/06 00:45:32;;;;;;;0.73;0.32;;;22.40;62.30;;;;;;6306986;22;20164;-91
2023/09/06 00:48:05;;;;;;;0.63;0.43;;;22.40;62.30;;;;;;6307324;22;20185;-90
2023/09/06 00:50:36;;;;;;;0.20;0.20;;;22.50;62.30;;;;;;6307966;22;20154;-91
2023/09/06 00:53:07;;;;;;;0.40;0.40;;;22.40;62.20;;;;;;6306766;22;20172;-92
2023/09/06 00:55:37;;;;;;;0.20;0.20;;;22.40;62.30;;;;;;6307344;22;20162;-91
2023/09/06 00:58:07;;;;;;;0.20;0.20;;;22.40;62.30;;;;;;6306102;22;20500;-92
2023/09/06 01:00:38;;;;;;;0.40;0.40;;;22.40;62.30;;;;;;6254979;22;20177;-90
2023/09/06 01:03:06;;;;;;;0.30;0.30;;;22.40;62.30;;;;;;6307842;22;20169;-91
2023/09/06 01:05:42;;;;;;;0.43;0.40;;;22.40;62.40;;;;;;6308612;22;20189;-91
2023/09/06 01:08:16;;;;;;;0.57;0.30;;;22.40;62.40;;;;;;6308366;22;20204;-92
2023/09/06 01:10:44;;;;;;;0.40;0.40;;;22.30;62.20;;;;;;6309538;22;20252;-92
2023/09/06 01:13:13;;;;;;;0.73;0.73;;;22.30;62.40;;;;;;6308853;22;20167;-92
2023/09/06 01:15:45;;;;;;;0.22;0.22;;;22.30;62.40;;;;;;6282525;22;20165;-90
2023/09/06 01:18:15;;;;;;;0.77;0.73;;;22.30;62.30;;;;;;6308524;22;20234;-91
2023/09/06 01:20:51;;;;;;;0.32;0.32;;;22.30;62.40;;;;;;6309747;22;20505;-91
2023/09/06 01:23:42;;;;;;;0.20;0.20;;;22.30;62.40;;;;;;6308570;22;20207;-92
2023/09/06 01:26:12;;;;;;;0.22;0.22;;;22.30;62.40;;;;;;6301270;22;20232;-92
2023/09/06 01:28:41;;;;;;;0.40;0.40;;;22.30;62.50;;;;;;6308937;22;20176;-91
2023/09/06 01:31:09;;;;;;;0.52;0.50;;;22.20;62.40;;;;;;6308622;22;20176;-91
2023/09/06 01:33:39;;;;;;;0.38;0.38;;;22.20;62.60;;;;;;6283135;22;20169;-92
2023/09/06 01:36:08;;;;;;;0.30;0.30;;;22.20;62.50;;;;;;6307382;22;20166;-91
2023/09/06 01:38:37;;;;;;;0.40;0.40;;;22.20;63.30;;;;;;6309226;22;20177;-92
2023/09/06 01:41:07;;;;;;;0.55;0.52;;;22.20;62.40;;;;;;6308767;22;20165;-90
2023/09/06 01:43:36;;;;;;;0.20;0.20;;;22.20;62.50;;;;;;6309232;22;20164;-92
2023/09/06 01:46:05;;;;;;;0.35;0.30;;;22.10;62.40;;;;;;6308998;22;20503;-92
2023/09/06 01:48:34;;;;;;;0.20;0.20;;;22.10;62.50;;;;;;6308675;22;20185;-91
2023/09/06 01:51:04;;;;;;;0.20;0.20;;;22.10;62.40;;;;;;6308619;22;20173;-91
2023/09/06 01:53:32;;;;;;;0.30;0.30;;;22.20;62.40;;;;;;6307930;22;20219;-92
2023/09/06 01:56:02;;;;;;;0.30;0.30;;;22.10;62.50;;;;;;6308751;22;20165;-91
2023/09/06 01:58:32;;;;;;;0.30;0.30;;;22.10;62.50;;;;;;6308253;22;20196;-92
2023/09/06 02:01:03;;;;;;;0.38;0.38;;;22.10;62.40;;;;;;6308802;22;20160;-92
2023/09/06 02:03:33;;;;;;;0.40;0.40;;;22.10;62.50;;;;;;6308686;22;20169;-92
2023/09/06 02:06:02;;;;;;;0.22;0.22;;;22.10;62.50;;;;;;6268901;22;20602;-92
2023/09/06 02:08:32;;;;;;;0.43;0.43;;;22.00;62.50;;;;;;6340751;22;20228;-92
2023/09/06 02:11:00;;;;;;;0.65;0.50;;;22.00;62.50;;;;;;6339447;22;20168;-92
2023/09/06 02:13:29;;;;;;;0.30;0.30;;;22.00;62.50;;;;;;6339037;22;20172;-92
2023/09/06 02:15:59;;;;;;;0.60;0.60;;;22.00;62.50;;;;;;6311977;22;20218;-91
2023/09/06 02:18:28;;;;;;;0.45;0.45;;;22.00;62.60;;;;;;6312948;22;20161;-91
2023/09/06 02:20:58;;;;;;;0.40;0.40;;;22.00;62.50;;;;;;6339355;22;20243;-90
2023/09/06 02:23:27;;;;;;;0.68;0.68;;;22.00;62.50;;;;;;6338752;22;20161;-92
2023/09/06 02:25:56;;;;;;;0.40;0.40;;;22.00;63.40;;;;;;6338322;22;20639;-90
2023/09/06 02:28:24;;;;;;;0.28;0.28;;;21.90;62.60;;;;;;6339837;22;20218;-90
2023/09/06 02:30:53;;;;;;;0.20;0.20;;;22.00;63.40;;;;;;6339166;22;20202;-91
2023/09/06 02:33:25;;;;;;;0.43;0.43;;;21.90;62.50;;;;;;6340153;22;20204;-93
2023/09/06 02:35:53;;;;;;;0.30;0.30;;;22.00;62.50;;;;;;6339560;22;20232;-90
2023/09/06 02:38:22;;;;;;;0.20;0.20;;;22.00;62.50;;;;;;6339825;22;20171;-92
2023/09/06 02:40:52;;;;;;;0.20;0.20;;;22.00;62.50;;;;;;6312885;22;20160;-91
2023/09/06 02:43:22;;;;;;;0.20;0.20;;;22.00;62.40;;;;;;6339855;22;20196;-92
2023/09/06 02:45:54;;;;;;;0.40;0.40;;;22.00;62.40;;;;;;6340234;22;20221;-92
2023/09/06 02:48:27;;;;;;;0.30;0.30;;;22.00;62.40;;;;;;6312836;22;20187;-91
2023/09/06 02:50:58;;;;;;;0.20;0.20;;;22.00;62.40;;;;;;6312666;22;20157;-91
2023/09/06 02:53:26;;;;;;;3.40;1.30;;;22.00;62.40;;;;;;6339633;22;20173;-90
2023/09/06 02:55:55;;;;;;;0.20;0.20;;;22.00;62.40;;;;;;6312011;22;20610;-90
2023/09/06 02:58:24;;;;;;;0.20;0.20;;;22.00;62.40;;;;;;6338609;22;20166;-91
2023/09/06 03:00:57;;;;;;;0.40;0.40;;;22.00;62.40;;;;;;6340235;22;20566;-91
2023/09/06 03:03:30;;;;;;;0.40;0.40;;;22.00;62.50;;;;;;6312253;22;20198;-92
2023/09/06 03:06:03;;;;;;;0.47;0.47;;;22.00;62.60;;;;;;6339388;22;20192;-93
2023/09/06 03:08:32;;;;;;;0.40;0.40;;;22.00;62.50;;;;;;6340184;22;20571;-91
2023/09/06 03:11:02;;;;;;;0.60;0.57;;;22.00;62.60;;;;;;6312947;22;20243;-91
2023/09/06 03:13:30;;;;;;;0.20;0.20;;;22.00;62.50;;;;;;6337838;22;20535;-93
2023/09/06 03:15:59;;;;;;;6.28;0.82;;;22.00;62.50;;;;;;6339022;22;20507;-91
2023/09/06 03:18:30;;;;;;;0.65;0.65;;;22.00;62.50;;;;;;6339156;22;20161;-91
2023/09/06 03:21:04;;;;;;;0.30;0.30;;;22.00;62.60;;;;;;6338360;22;20157;-92
2023/09/06 03:23:33;;;;;;;0.30;0.30;;;22.00;62.50;;;;;;6313329;22;20156;-91
2023/09/06 03:26:02;;;;;;;0.52;0.52;;;22.00;62.50;;;;;;6338958;22;20191;-90
2023/09/06 03:28:31;;;;;;;0.68;0.68;;;22.00;62.50;;;;;;6311910;22;20510;-91
2023/09/06 03:31:01;;;;;;;0.20;0.20;;;22.00;62.50;;;;;;6339111;22;20164;-90
2023/09/06 03:33:31;;;;;;;0.22;0.22;;;22.00;62.50;;;;;;6338335;22;20602;-90
2023/09/06 03:36:00;;;;;;;1.05;0.57;;;21.90;62.50;;;;;;6339632;22;20204;-90
2023/09/06 03:38:29;;;;;;;0.30;0.30;;;21.90;62.50;;;;;;6339002;22;20211;-91
2023/09/06 03:41:02;;;;;;;0.50;0.50;;;21.90;62.50;;;;;;6312903;22;20231;-90
2023/09/06 03:43:32;;;;;;;0.20;0.20;;;21.90;62.50;;;;;;6339020;22;20156;-90
2023/09/06 03:46:04;;;;;;;0.45;0.45;;;21.90;62.50;;;;;;6338132;22;20177;-90
2023/09/06 03:48:35;;;;;;;0.25;0.25;;;21.90;62.50;;;;;;6337562;22;20180;-92
2023/09/06 03:51:05;;;;;;;0.38;0.38;;;22.00;62.50;;;;;;6338519;22;20188;-92
2023/09/06 03:53:37;;;;;;;0.20;0.20;;;21.90;62.50;;;;;;6311663;22;20167;-92
2023/09/06 03:56:06;;;;;;;1.75;0.60;;;21.90;62.50;;;;;;6337779;22;20629;-90
2023/09/06 03:58:35;;;;;;;1.02;0.75;;;21.90;62.50;;;;;;6338799;22;20164;-91
2023/09/06 04:01:04;;;;;;;0.40;0.40;;;21.90;62.60;;;;;;6311851;22;20165;-91
2023/09/06 04:03:38;;;;;;;0.20;0.20;;;21.90;62.60;;;;;;6339483;22;20164;-91
2023/09/06 04:06:08;;;;;;;1.70;1.20;;;21.90;62.70;;;;;;6336719;22;20219;-91
2023/09/06 04:08:36;;;;;;;0.80;0.77;;;21.80;62.70;;;;;;6312552;22;20192;-87
2023/09/06 04:11:05;;;;;;;0.40;0.40;;;21.80;62.60;;;;;;6326738;22;20197;-91
2023/09/06 04:13:34;;;;;;;0.50;0.50;;;21.90;62.70;;;;;;6305313;22;20236;-90
2023/09/06 04:16:05;;;;;;;1.00;0.90;;;21.80;62.60;;;;;;6304991;22;20161;-88
2023/09/06 04:18:35;;;;;;;0.85;0.60;;;21.90;62.70;;;;;;6305851;22;20161;-92
2023/09/06 04:21:08;;;;;;;1.77;0.95;;;21.90;62.70;;;;;;6306583;22;20165;-90
2023/09/06 04:23:39;;;;;;;0.73;0.43;;;21.80;62.70;;;;;;6307269;22;20251;-88
2023/09/06 04:26:07;;;;;;;2.28;0.80;;;21.80;62.70;;;;;;6305972;22;20166;-91
2023/09/06 04:28:36;;;;;;;0.25;0.25;;;21.80;62.70;;;;;;6306461;22;20185;-90
2023/09/06 04:31:06;;;;;;;0.40;0.40;;;21.80;62.50;;;;;;6278514;22;20211;-91
2023/09/06 04:33:36;;;;;;;0.40;0.40;;;21.80;62.50;;;;;;6306758;22;20165;-93
2023/09/06 04:36:05;;;;;;;0.20;0.20;;;21.80;62.40;;;;;;6306695;22;20169;-92
2023/09/06 04:38:33;;;;;;;0.93;0.82;;;21.80;62.40;;;;;;6306447;22;20180;-91
2023/09/06 04:41:02;;;;;;;0.40;0.40;;;21.80;62.10;;;;;;6305045;22;20244;-90
2023/09/06 04:43:31;;;;;;;0.98;0.85;;;21.90;62.10;;;;;;6307461;22;20225;-91
2023/09/06 04:45:59;;;;;;;0.40;0.40;;;21.90;61.90;;;;;;6305989;22;20263;-91
2023/09/06 04:48:28;;;;;;;0.20;0.20;;;21.90;61.90;;;;;;6305758;22;20227;-91
2023/09/06 04:50:59;;;;;;;1.17;0.68;;;22.00;61.80;;;;;;6305569;22;20246;-91
2023/09/06 04:53:28;;;;;;;0.20;0.20;;;22.00;61.60;;;;;;6306698;22;20208;-91
2023/09/06 04:55:57;;;;;;;0.40;0.40;;;22.00;61.60;;;;;;6307011;22;20166;-90
2023/09/06 04:58:25;;;;;;;1.60;0.50;;;22.00;61.50;;;;;;6307327;22;20168;-89
2023/09/06 05:00:55;;;;;;;1.08;1.02;;;22.00;60.50;;;;;;6280535;22;20179;-90
2023/09/06 05:03:23;;;;;;;1.15;0.38;;;22.00;60.20;;;;;;6306409;22;20165;-91
2023/09/06 05:05:53;;;;;;;1.10;1.00;;;22.10;60.00;;;;;;6306561;22;20165;-91
2023/09/06 05:08:23;;;;;;;0.30;0.30;;;22.10;59.40;;;;;;6306266;22;20745;-91
2023/09/06 05:10:52;;;;;;;0.22;0.22;;;22.10;59.30;;;;;;6305959;22;20220;-91
2023/09/06 05:13:20;;;;;;;0.90;0.70;;;22.20;59.40;;;;;;6306521;22;20783;-91
2023/09/06 05:15:51;;;;;;;0.30;0.30;;;22.20;59.10;;;;;;6307066;22;20191;-89
2023/09/06 05:18:19;;;;;;;0.30;0.30;;;22.30;58.80;;;;;;6305376;22;20169;-92
2023/09/06 05:20:48;;;;;;;0.30;0.30;;;22.40;58.90;;;;;;6305796;22;20630;-91
2023/09/06 05:23:18;;;;;;;0.25;0.25;;;22.40;58.80;;;;;;6305275;22;20510;-88
2023/09/06 05:25:48;;;;;;;0.32;0.32;;;22.40;58.20;;;;;;6305269;22;20172;-91
2023/09/06 05:28:20;;;;;;;0.68;0.68;;;22.50;58.00;;;;;;6305987;22;20595;-91
2023/09/06 05:30:49;;;;;;;0.45;0.40;;;22.50;58.00;;;;;;6304237;22;20669;-88
2023/09/06 05:33:18;;;;;;;0.68;0.50;;;22.50;57.90;;;;;;6304617;22;20169;-89
2023/09/06 05:35:46;;;;;;;0.30;0.30;;;22.50;56.80;;;;;;6306264;22;20169;-88
2023/09/06 05:38:15;;;;;;;0.20;0.20;;;22.60;57.30;;;;;;6306633;22;20165;-88
2023/09/06 05:40:44;;;;;;;0.50;0.40;;;22.70;57.20;;;;;;6306626;22;20165;-93
2023/09/06 05:43:14;;;;;;;0.40;0.40;;;22.70;56.80;;;;;;6306299;22;20244;-89
2023/09/06 05:45:43;;;;;;;0.35;0.35;;;22.70;56.60;;;;;;6307232;22;20668;-92
2023/09/06 05:48:17;;;;;;;0.55;0.55;;;22.70;56.80;;;;;;6306512;22;20191;-92
2023/09/06 05:50:46;;;;;;;1.55;0.55;;;22.80;57.10;;;;;;6308266;22;20199;-92
2023/09/06 05:53:15;;;;;;;0.20;0.20;;;22.90;57.30;;;;;;6307518;22;20168;-90
2023/09/06 05:55:43;;;;;;;0.20;0.20;;;23.00;57.40;;;;;;6309023;22;20173;-90
2023/09/06 05:58:13;;;;;;;0.55;0.55;;;23.10;57.20;;;;;;6308323;22;20176;-88
2023/09/06 06:00:42;;;;;;;0.20;0.20;;;23.10;56.50;;;;;;6308780;22;20391;-93
2023/09/06 06:03:11;;;;;;;0.20;0.20;;;23.20;56.50;;;;;;6306621;22;20172;-87
2023/09/06 06:05:39;;;;;;;0.43;0.43;;;23.20;55.70;;;;;;6306576;22;20161;-87
2023/09/06 06:08:11;;;;;;;0.35;0.35;;;23.30;56.20;;;;;;6307417;22;20211;-89
2023/09/06 06:10:40;;;;;;;0.65;0.65;;;23.40;55.90;;;;;;6316347;22;20248;-88
2023/09/06 06:13:11;;;;;;;0.20;0.20;;;23.50;55.90;;;;;;6326280;22;20172;-86
2023/09/06 06:15:41;;;;;;;0.20;0.20;;;23.50;56.10;;;;;;6326598;22;20161;-88
2023/09/06 06:18:10;;;;;;;2.92;0.95;;;23.60;56.30;;;;;;6328991;22;20220;-89
2023/09/06 06:20:38;;;;;;;0.50;0.45;;;23.70;56.40;;;;;;6330096;22;20209;-91
2023/09/06 06:23:12;;;;;;;1.27;0.77;;;23.70;56.20;;;;;;6325829;22;20173;-86
2023/09/06 06:25:44;;;;;;;0.22;0.22;;;23.80;56.40;;;;;;6325353;22;20191;-89
2023/09/06 06:28:12;;;;;;;0.68;0.50;;;23.90;56.50;;;;;;6327178;22;20165;-89
2023/09/06 06:30:43;;;;;;;0.45;0.40;;;24.00;56.50;;;;;;6329515;22;20223;-90
2023/09/06 06:33:11;;;;;;;1.35;0.88;;;24.00;56.30;;;;;;6332018;22;20213;-91
2023/09/06 06:35:41;;;;;;;2.10;0.85;;;24.10;56.60;;;;;;6320892;22;20215;-89
2023/09/06 06:38:11;;;;;;;0.35;0.35;;;24.20;56.80;;;;;;6307412;22;20180;-90
2023/09/06 06:40:42;;;;;;;0.25;0.25;;;24.30;56.90;;;;;;6308312;22;20184;-88
2023/09/06 06:43:11;;;;;;;0.40;0.20;;;24.40;56.80;;;;;;6308535;22;20161;-90
2023/09/06 06:45:47;;;;;;;0.73;0.73;;;24.40;56.60;;;;;;6308237;22;20161;-90
2023/09/06 06:48:16;;;;;;;2.20;0.50;;;24.50;56.80;;;;;;6308607;22;20192;-89
2023/09/06 06:50:44;;;;;;;0.40;0.40;;;24.60;56.80;;;;;;6309482;22;20191;-90
2023/09/06 06:53:13;;;;;;;0.80;0.63;;;24.70;56.70;;;;;;6308475;22;20166;-92
2023/09/06 06:55:42;;;;;;;1.17;0.77;;;24.80;56.70;;;;;;6307880;22;20173;-89
2023/09/06 06:58:11;;;;;;;0.40;0.40;;;24.80;56.30;;;;;;6307668;22;20172;-89
2023/09/06 07:00:39;;;;;;;0.30;0.30;;;24.90;56.40;;;;;;6306629;22;20236;-88
2023/09/06 07:03:09;;;;;;;0.30;0.30;;;24.90;56.60;;;;;;6307565;22;20165;-89
2023/09/06 07:05:39;;;;;;;0.55;0.52;;;25.00;56.40;;;;;;6307769;22;20160;-87
2023/09/06 07:08:07;;;;;;;0.40;0.40;;;25.00;56.20;;;;;;6307184;22;20240;-91
2023/09/06 07:10:36;;;;;;;0.35;0.35;;;25.00;55.20;;;;;;6307478;22;20189;-89
2023/09/06 07:13:05;;;;;;;0.80;0.47;;;25.00;55.50;;;;;;6307570;22;20161;-90
2023/09/06 07:15:33;;;;;;;0.60;0.60;;;25.10;55.90;;;;;;6308218;22;20188;-89
2023/09/06 07:18:06;;;;;;;0.43;0.43;;;25.20;56.20;;;;;;6306648;22;20184;-91
2023/09/06 07:20:36;;;;;;;1.40;0.70;;;25.20;56.50;;;;;;6307998;22;20203;-88
2023/09/06 07:23:05;;;;;;;1.08;0.95;;;25.30;56.50;;;;;;6307214;22;20232;-90
2023/09/06 07:25:34;;;;;;;0.52;0.50;;;25.40;56.60;;;;;;6307435;22;20168;-88
2023/09/06 07:28:02;;;;;;;0.30;0.30;;;25.40;56.70;;;;;;6307122;22;20208;-89
2023/09/06 07:30:32;;;;;;;0.47;0.47;;;25.50;56.80;;;;;;6307918;22;20243;-89
2023/09/06 07:33:00;;;;;;;0.40;0.40;;;25.60;56.50;;;;;;6307094;22;20172;-89
2023/09/06 07:35:29;;;;;;;0.40;0.40;;;25.60;56.60;;;;;;6308228;22;20176;-90
2023/09/06 07:38:02;;;;;;;0.63;0.40;;;25.70;56.50;;;;;;6307532;22;20244;-90
2023/09/06 07:40:31;;;;;;;0.40;0.40;;;25.70;56.30;;;;;;6307521;22;20153;-87
2023/09/06 07:42:59;;;;;;;0.98;0.85;;;25.80;56.50;;;;;;6305271;22;20168;-91
2023/09/06 07:45:28;;;;;;;0.35;0.28;;;25.80;56.40;;;;;;6308197;22;20170;-90
2023/09/06 07:47:56;;;;;;;0.40;0.40;;;25.90;56.50;;;;;;6306619;22;20223;-89
2023/09/06 07:50:25;;;;;;;2.72;1.30;;;25.90;56.20;;;;;;6307551;22;20192;-90
2023/09/06 07:52:54;;;;;;;1.13;0.52;;;26.00;56.20;;;;;;6304752;22;20169;-89
2023/09/06 07:55:24;;;;;;;0.90;0.70;;;26.10;56.20;;;;;;6304845;22;20165;-89
2023/09/06 07:57:53;;;;;;;0.20;0.20;;;26.10;56.20;;;;;;6307060;22;20171;-91
2023/09/06 08:00:22;;;;;;;0.90;0.65;;;26.20;56.10;;;;;;6307842;22;20556;-90
2023/09/06 08:02:50;;;;;;;3.03;0.75;;;26.20;56.20;;;;;;6306762;22;20610;-91
2023/09/06 08:05:29;;;;;;;1.02;0.82;;;26.30;55.90;;;;;;6306513;22;20180;-90
2023/09/06 08:08:01;;;;;;;0.40;0.40;;;26.30;55.90;;;;;;6307079;22;20767;-91
2023/09/06 08:10:31;;;;;;;2.28;1.20;;;26.40;56.10;;;;;;6306954;22;20208;-87
2023/09/06 08:12:59;;;;;;;0.80;0.80;;;26.40;56.10;;;;;;6304829;22;20192;-92
2023/09/06 08:15:28;;;;;;;0.30;0.30;;;26.50;56.20;;;;;;6307574;22;20165;-88
2023/09/06 08:17:57;;;;;;;0.60;0.60;;;26.60;56.30;;;;;;6306783;22;20168;-88
2023/09/06 08:20:25;;;;;;;0.60;0.60;;;26.60;56.10;;;;;;6307322;22;20188;-90
2023/09/06 08:22:54;;;;;;;0.98;0.93;;;26.70;55.80;;;;;;6307119;22;20169;-89
2023/09/06 08:25:22;;;;;;;0.52;0.43;;;26.70;55.20;;;;;;6307227;22;20167;-90
2023/09/06 08:27:53;;;;;;;0.50;0.50;;;26.70;54.80;;;;;;6305948;22;20172;-88
2023/09/06 08:30:22;;;;;;;0.65;0.47;;;26.80;55.00;;;;;;6306909;22;20192;-89
2023/09/06 08:32:51;;;;;;;1.17;0.73;;;26.80;55.10;;;;;;6305607;22;20167;-91
2023/09/06 08:35:20;;;;;;;0.30;0.30;;;26.80;55.30;;;;;;6306615;22;20169;-87
2023/09/06 08:37:48;;;;;;;0.30;0.30;;;26.90;55.00;;;;;;6306345;22;20516;-88
2023/09/06 08:40:18;;;;;;;1.08;0.73;;;26.90;55.00;;;;;;6307095;22;20165;-90
2023/09/06 08:42:48;;;;;;;0.98;0.45;;;27.00;54.50;;;;;;6305697;22;20171;-90
2023/09/06 08:45:21;;;;;;;0.98;0.88;;;27.00;54.20;;;;;;6306966;22;20167;-87
2023/09/06 08:47:51;;;;;;;2.55;0.75;;;27.10;54.40;;;;;;6305695;22;20249;-88
2023/09/06 08:50:21;;;;;;;0.30;0.30;;;27.10;54.50;;;;;;6306833;22;20629;-87
2023/09/06 08:52:51;;;;;;;0.93;0.73;;;27.20;54.60;;;;;;6302526;22;20606;-90
2023/09/06 08:55:20;;;;;;;0.55;0.45;;;27.30;54.50;;;;;;6304979;22;20200;-87
2023/09/06 08:57:49;;;;;;;0.30;0.30;;;27.30;54.00;;;;;;6305439;22;20162;-86
2023/09/06 09:00:23;;;;;;;1.52;0.45;;;27.30;54.10;;;;;;6306014;22;20201;-89
2023/09/06 09:02:53;;;;;;;0.88;0.82;;;27.40;54.30;;;;;;6305213;22;20161;-90
2023/09/06 09:05:22;;;;;;;0.85;0.75;;;27.50;54.30;;;;;;6305395;22;20173;-87
2023/09/06 09:07:59;;;;;;;0.50;0.50;;;27.60;54.00;;;;;;6307334;22;20191;-86
2023/09/06 09:10:31;;;;;;;0.43;0.40;;;27.60;53.90;;;;;;6305523;22;20172;-90
2023/09/06 09:13:02;;;;;;;0.40;0.40;;;27.70;53.90;;;;;;6306663;22;20340;-88
2023/09/06 09:15:34;;;;;;;0.50;0.45;;;27.80;53.60;;;;;;6306665;22;20165;-89
2023/09/06 09:18:11;;;;;;;0.22;0.22;;;27.90;53.80;;;;;;6307058;22;20177;-92
2023/09/06 09:20:43;;;;;;;0.20;0.20;;;28.00;53.30;;;;;;6305438;22;20245;-87
2023/09/06 09:23:16;;;;;;;0.63;0.40;;;28.00;52.80;;;;;;6306981;22;20194;-86
2023/09/06 09:25:49;;;;;;;2.90;0.55;;;28.20;52.80;;;;;;6308064;22;20161;-87
2023/09/06 09:28:18;;;;;;;0.30;0.30;;;28.20;51.90;;;;;;6307893;22;20165;-86
2023/09/06 09:30:48;;;;;;;1.83;0.60;;;28.30;52.10;;;;;;6307306;22;20638;-88
2023/09/06 09:33:17;;;;;;;0.38;0.38;;;28.40;52.30;;;;;;6308510;22;20502;-87
2023/09/06 09:35:47;;;;;;;0.35;0.35;;;28.50;51.60;;;;;;6308192;22;20359;-90
2023/09/06 09:38:16;;;;;;;0.75;0.75;;;28.50;51.40;;;;;;6307580;22;20165;-87
2023/09/06 09:40:44;;;;;;;0.55;0.50;;;28.60;51.50;;;;;;6305536;22;20172;-90
2023/09/06 09:43:21;;;;;;;2.85;0.77;;;28.70;51.80;;;;;;6303768;22;20199;-88
2023/09/06 09:45:51;;;;;;;0.20;0.20;;;28.70;51.30;;;;;;6305052;22;20161;-87
2023/09/06 09:48:22;;;;;;;0.98;0.60;;;28.70;50.90;;;;;;6305161;22;20833;-86
2023/09/06 09:50:55;;;;;;;0.20;0.20;;;28.70;51.10;;;;;;6306118;22;20252;-89
2023/09/06 09:53:24;;;;;;;0.40;0.40;;;28.70;51.30;;;;;;6305653;22;20493;-87
2023/09/06 09:55:54;;;;;;;0.50;0.50;;;28.70;50.90;;;;;;6306418;22;20171;-89
2023/09/06 09:58:25;;;;;;;0.30;0.30;;;28.70;50.60;;;;;;6302244;22;20161;-88
2023/09/06 10:00:56;;;;;;;4.95;1.65;;;28.70;50.70;;;;;;6305525;22;20614;-86
2023/09/06 10:03:29;;;;;;;0.25;0.25;;;28.80;50.70;;;;;;6304566;22;20157;-86
2023/09/06 10:05:59;;;;;;;1.77;1.67;;;28.70;50.70;;;;;;6307366;22;20606;-90
2023/09/06 10:08:29;;;;;;;0.35;0.35;;;28.80;50.90;;;;;;6307840;22;20268;-90
2023/09/06 10:10:58;;;;;;;0.40;0.30;;;28.80;50.20;;;;;;6311793;22;20210;-88
2023/09/06 10:13:27;;;;;;;0.65;0.65;;;28.70;49.50;;;;;;6339019;22;20161;-90
2023/09/06 10:15:59;;;;;;;0.47;0.47;;;28.80;49.50;;;;;;6339263;22;20164;-91
2023/09/06 10:18:28;;;;;;;0.77;0.70;;;28.80;49.50;;;;;;6336958;22;20172;-88
2023/09/06 10:20:59;;;;;;;0.90;0.40;;;28.80;50.00;;;;;;6336489;22;20161;-86
2023/09/06 10:23:31;;;;;;;0.45;0.30;;;28.80;50.00;;;;;;6332529;22;20256;-86
2023/09/06 10:26:01;;;;;;;0.20;0.20;;;28.90;49.90;;;;;;6335661;22;20469;-87
2023/09/06 10:28:33;;;;;;;0.68;0.68;;;28.90;50.00;;;;;;6334060;22;20267;-87
2023/09/06 10:31:08;;;;;;;0.20;0.20;;;29.00;49.90;;;;;;6334937;22;20164;-86
2023/09/06 10:33:55;;;;;;;0.63;0.47;;;29.00;49.80;;;;;;6336374;22;20464;-84
2023/09/06 10:36:27;;;;;;;0.93;0.43;;;29.00;49.70;;;;;;6334365;22;20160;-86
2023/09/06 10:39:14;;;;;;;0.22;0.22;;;29.10;50.00;;;;;;6335291;22;20259;-87
2023/09/06 10:42:27;;;;;;;0.70;0.50;;;29.20;50.00;;;;;;6335647;22;20165;-88
2023/09/06 10:45:23;;;;;;;0.40;0.30;;;29.20;49.80;;;;;;6336622;22;20167;-90
2023/09/06 10:48:09;;;;;;;0.88;0.50;;;29.20;49.10;;;;;;6337841;22;20165;-87
2023/09/06 10:50:38;;;;;;;0.32;0.32;;;29.20;48.80;;;;;;6336021;22;20239;-87
2023/09/06 10:53:07;;;;;;;17.38;0.73;;;29.20;48.90;;;;;;6336388;22;20196;-87
2023/09/06 10:55:46;;;;;;;0.50;0.20;;;29.30;49.30;;;;;;6333181;22;20184;-87
2023/09/06 10:58:16;;;;;;;0.52;0.52;;;29.40;49.40;;;;;;6333083;22;20640;-87
2023/09/06 11:01:08;;;;;;;0.28;0.28;;;29.40;49.00;;;;;;6334678;22;20176;-86
2023/09/06 11:03:45;;;;;;;0.30;0.30;;;29.40;48.60;;;;;;6334417;22;20173;-90
2023/09/06 11:06:14;;;;;;;0.28;0.28;;;29.50;49.00;;;;;;6333490;22;20160;-88
2023/09/06 11:08:45;;;;;;;0.52;0.43;;;29.50;48.60;;;;;;6331231;22;20629;-85
2023/09/06 11:11:17;;;;;;;1.23;0.60;;;29.50;48.30;;;;;;6334194;22;20195;-87
2023/09/06 11:13:45;;;;;;;0.35;0.35;;;29.50;48.60;;;;;;6334396;22;20628;-85
2023/09/06 11:16:16;;;;;;;0.30;0.30;;;29.50;48.30;;;;;;6335616;22;20240;-86
2023/09/06 11:18:47;;;;;;;0.52;0.45;;;29.60;48.40;;;;;;6335196;22;20182;-87
2023/09/06 11:21:20;;;;;;;1.02;0.47;;;29.60;48.60;;;;;;6335357;22;20164;-86
2023/09/06 11:23:49;;;;;;;0.60;0.52;;;29.60;48.10;;;;;;6338419;22;20165;-86
2023/09/06 11:26:19;;;;;;;0.63;0.63;;;29.60;48.20;;;;;;6336694;22;20165;-87
2023/09/06 11:28:49;;;;;;;0.35;0.35;;;29.60;48.30;;;;;;6336842;22;20195;-91
2023/09/06 11:31:22;;;;;;;0.40;0.40;;;29.70;48.50;;;;;;6337830;22;20248;-91
2023/09/06 11:33:57;;;;;;;0.70;0.45;;;29.70;48.10;;;;;;6335516;22;20708;-83
2023/09/06 11:36:31;;;;;;;0.40;0.40;;;29.70;48.10;;;;;;6336279;22;20152;-81
2023/09/06 11:39:12;;;;;;;0.30;0.30;;;29.80;48.30;;;;;;6333414;22;20227;-83
2023/09/06 11:41:41;;;;;;;0.30;0.30;;;29.80;48.40;;;;;;6335159;22;20156;-85
2023/09/06 11:44:13;;;;;;;4.75;0.40;;;29.90;48.30;;;;;;6333067;22;20168;-87
2023/09/06 11:46:44;;;;;;;0.55;0.40;;;29.90;48.20;;;;;;6336839;22;20168;-91
2023/09/06 11:49:15;;;;;;;0.30;0.30;;;29.90;48.00;;;;;;6335439;22;20160;-86
2023/09/06 11:51:47;;;;;;;0.40;0.40;;;29.90;47.90;;;;;;6336935;22;20160;-88
2023/09/06 11:54:17;;;;;;;0.70;0.57;;;29.90;47.30;;;;;;6334575;22;20222;-87
2023/09/06 11:56:48;;;;;;;0.57;0.57;;;29.90;47.50;;;;;;6335643;22;20658;-91
2023/09/06 11:59:20;;;;;;;0.15;0.15;;;30.00;47.70;;;;;;6332671;22;20172;-87
2023/09/06 12:01:52;;;;;;;0.85;0.38;;;30.00;47.70;;;;;;6331509;22;20240;-88
2023/09/06 12:04:23;;;;;;;0.43;0.40;;;30.00;47.30;;;;;;6332597;22;20218;-87
2023/09/06 12:06:52;;;;;;;1.85;0.77;;;29.90;47.30;;;;;;6334957;22;20164;-88
2023/09/06 12:09:21;;;;;;;1.08;0.98;;;30.00;47.10;;;;;;6335979;22;20192;-88
2023/09/06 12:11:50;;;;;;;0.50;0.40;;;30.10;47.20;;;;;;6335136;22;20279;-88
2023/09/06 12:14:19;;;;;;;0.65;0.60;;;30.20;47.20;;;;;;6334728;22;20164;-85
2023/09/06 12:16:47;;;;;;;0.73;0.50;;;30.20;47.20;;;;;;6335187;22;20218;-89
2023/09/06 12:19:17;;;;;;;0.40;0.40;;;30.20;47.00;;;;;;6335247;22;20175;-87
2023/09/06 12:21:48;;;;;;;0.40;0.30;;;30.20;47.20;;;;;;6333105;22;20164;-87
2023/09/06 12:24:17;;;;;;;0.45;0.20;;;30.20;47.40;;;;;;6333730;22;20156;-87
2023/09/06 12:26:47;;;;;;;1.00;0.45;;;30.10;46.20;;;;;;6333815;22;20164;-86
2023/09/06 12:29:16;;;;;;;0.45;0.45;;;30.10;46.60;;;;;;6334991;22;20157;-87
2023/09/06 12:31:45;;;;;;;0.47;0.47;;;30.20;46.60;;;;;;6333081;22;20247;-84
2023/09/06 12:34:14;;;;;;;0.40;0.40;;;30.10;46.30;;;;;;6333404;22;20192;-87
2023/09/06 12:36:42;;;;;;;0.60;0.57;;;30.10;46.40;;;;;;6335932;22;20160;-86
2023/09/06 12:39:12;;;;;;;0.47;0.47;;;30.20;46.50;;;;;;6334434;22;20160;-90
2023/09/06 12:41:42;;;;;;;0.52;0.50;;;30.20;46.40;;;;;;6337156;22;20156;-86
2023/09/06 12:44:10;;;;;;;0.77;0.55;;;30.20;46.40;;;;;;6333494;22;20640;-85
2023/09/06 12:46:39;;;;;;;0.82;0.52;;;30.20;46.30;;;;;;6334999;22;20626;-84
2023/09/06 12:49:07;;;;;;;0.40;0.40;;;30.20;45.80;;;;;;6334972;22;20491;-83
2023/09/06 12:51:37;;;;;;;0.45;0.45;;;30.20;46.20;;;;;;6335703;22;20168;-82
2023/09/06 12:54:06;;;;;;;0.20;0.20;;;30.20;46.40;;;;;;6333979;22;20191;-82
2023/09/06 12:56:38;;;;;;;0.40;0.40;;;30.20;46.20;;;;;;6335696;22;20168;-83
2023/09/06 12:59:07;;;;;;;0.50;0.50;;;30.30;46.30;;;;;;6336081;22;20163;-83
2023/09/06 13:01:35;;;;;;;0.30;0.30;;;30.30;46.40;;;;;;6335770;22;20644;-82
2023/09/06 13:04:05;;;;;;;0.60;0.32;;;30.20;45.80;;;;;;6335634;22;20214;-83